Time;durP1;ratioP1;P1;durP2;ratioP2;P2;SDS_P1;SDS_P2;PMS_P1;PMS_P2;Temp;Humidity;BMP_temperature;BMP_pressure;BME280_temperature;BME280_humidity;BME280_pressure;Samples;Min_cycle;Max_cycle;Signal;HPM_P1;HPM_P2
2022/09/11 00:00:40;;;;;;;9.20;3.53;;;;;;;14.60;100.00;98883.22;8381589;28;20504;-79
2022/09/11 00:04:59;;;;;;;;;;;;;;;14.60;100.00;98888.66;8376994;28;20058;-81
2022/09/11 00:09:04;;;;;;;8.25;3.53;;;;;;;14.56;100.00;98886.97;8373229;28;19920;-81
2022/09/11 00:13:06;;;;;;;10.45;3.30;;;;;;;14.52;100.00;98892.28;8384961;28;20063;-81
2022/09/11 00:17:07;;;;;;;7.60;3.47;;;;;;;14.51;100.00;98912.44;8379477;28;20458;-81
2022/09/11 00:21:08;;;;;;;6.80;3.40;;;;;;;14.48;100.00;98913.13;8393497;28;20098;-81
2022/09/11 00:25:09;;;;;;;7.53;2.88;;;;;;;14.44;100.00;98906.75;8385042;28;20048;-81
2022/09/11 00:29:10;;;;;;;7.47;3.35;;;;;;;14.43;100.00;98904.41;8388654;28;20140;-81
2022/09/11 00:33:13;;;;;;;8.40;2.47;;;;;;;14.38;100.00;98897.28;8370659;28;20054;-81
2022/09/11 00:37:14;;;;;;;7.70;2.65;;;;;;;14.36;100.00;98899.50;8377458;28;20095;-80
2022/09/11 00:41:20;;;;;;;7.68;3.05;;;;;;;14.36;100.00;98894.06;8380671;28;20052;-80
2022/09/11 00:45:26;;;;;;;4.47;2.25;;;;;;;14.34;100.00;98896.31;8377162;28;20044;-81
2022/09/11 00:49:31;;;;;;;10.20;3.38;;;;;;;14.32;100.00;98893.16;8380700;28;20053;-81
2022/09/11 00:53:35;;;;;;;3.50;2.42;;;;;;;14.29;100.00;98885.66;8373028;28;20053;-80
2022/09/11 00:57:55;;;;;;;9.65;2.75;;;;;;;14.29;100.00;98888.38;8377476;28;20473;-81
2022/09/11 01:01:56;;;;;;;8.75;2.80;;;;;;;14.29;100.00;98888.38;8379804;28;20045;-81
2022/09/11 01:05:58;;;;;;;4.78;2.47;;;;;;;14.26;100.00;98883.63;8377299;28;20564;-81
2022/09/11 01:09:59;;;;;;;11.30;2.60;;;;;;;14.22;100.00;98888.16;8375570;28;20056;-81
2022/09/11 01:14:07;;;;;;;4.10;2.35;;;;;;;14.20;100.00;98885.00;8379935;28;20044;-81
2022/09/11 01:18:29;;;;;;;10.88;2.53;;;;;;;14.19;100.00;98877.97;8374456;28;20127;-81
2022/09/11 01:23:00;;;;;;;6.85;2.83;;;;;;;14.14;100.00;98881.69;8375033;28;20055;-81
2022/09/11 01:27:25;;;;;;;12.85;3.05;;;;;;;14.16;100.00;98878.66;8293301;28;20058;-82
2022/09/11 01:31:35;;;;;;;9.73;3.40;;;;;;;14.15;100.00;98871.63;8293336;28;20050;-81
2022/09/11 01:35:40;;;;;;;4.20;3.50;;;;;;;14.13;100.00;98884.75;8293161;28;20088;-81
2022/09/11 01:39:48;;;;;;;10.52;3.55;;;;;;;14.11;100.00;98887.81;8292925;28;20048;-81
2022/09/11 01:43:53;;;;;;;9.02;3.55;;;;;;;14.09;100.00;98883.84;8275220;28;20118;-81
2022/09/11 01:47:55;;;;;;;6.60;4.38;;;;;;;14.05;100.00;98882.94;8292813;28;20069;-81
2022/09/11 01:51:58;;;;;;;9.90;4.05;;;;;;;14.04;100.00;98887.56;8275201;28;20046;-81
2022/09/11 01:56:08;;;;;;;11.02;4.10;;;;;;;14.06;100.00;98879.09;8275741;28;20423;-81
2022/09/11 02:00:10;;;;;;;11.35;4.60;;;;;;;14.07;100.00;98880.66;8275838;28;20569;-82
2022/09/11 02:04:18;;;;;;;7.60;4.25;;;;;;;14.11;100.00;98887.00;8357553;28;20049;-81
2022/09/11 02:08:23;;;;;;;15.88;5.22;;;;;;;14.12;100.00;98883.16;8374648;28;20052;-81
2022/09/11 02:12:27;;;;;;;14.48;5.57;;;;;;;14.10;100.00;98874.56;8378175;28;20052;-81
2022/09/11 02:16:48;;;;;;;8.00;4.72;;;;;;;14.12;100.00;98877.72;8360491;28;20147;-81
2022/09/11 02:20:51;;;;;;;8.75;5.38;;;;;;;14.15;100.00;98871.63;8369046;28;20071;-81
2022/09/11 02:24:52;;;;;;;13.20;5.53;;;;;;;14.14;100.00;98867.31;8370239;28;20049;-81
2022/09/11 02:28:53;;;;;;;10.57;5.95;;;;;;;14.14;100.00;98861.88;8374269;28;20052;-81
2022/09/11 02:32:54;;;;;;;9.45;5.55;;;;;;;14.18;100.00;98860.06;8353599;28;20083;-81
2022/09/11 02:37:02;;;;;;;11.07;6.25;;;;;;;14.18;100.00;98854.66;8366383;28;20479;-80
2022/09/11 02:41:23;;;;;;;12.90;6.78;;;;;;;14.15;100.00;98855.34;8370596;28;20124;-82
2022/09/11 02:45:40;;;;;;;14.10;8.70;;;;;;;14.07;100.00;98848.06;8360375;28;20057;-81
2022/09/11 02:49:40;;;;;;;21.50;10.68;;;;;;;14.12;100.00;98856.00;8364097;28;20056;-81
2022/09/11 02:53:41;;;;;;;16.92;10.63;;;;;;;14.07;100.00;98853.50;8371805;28;20056;-82
2022/09/11 02:58:28;;;;;;;27.90;10.90;;;;;;;14.06;100.00;98851.94;8368863;28;20062;-81
2022/09/11 03:02:30;;;;;;;19.85;10.95;;;;;;;14.06;100.00;98858.16;8221108;28;20054;-80
2022/09/11 03:06:31;;;;;;;18.00;10.73;;;;;;;14.08;100.00;98853.16;8220851;28;20098;-82
2022/09/11 03:10:33;;;;;;;17.38;11.68;;;;;;;14.10;100.00;98852.84;8228696;28;20046;-81
2022/09/11 03:14:34;;;;;;;49.88;11.13;;;;;;;14.07;100.00;98859.72;8241045;28;20066;-81
2022/09/11 03:18:35;;;;;;;39.83;13.30;;;;;;;14.04;100.00;98854.19;8231812;28;20038;-80
2022/09/11 03:22:36;;;;;;;17.70;12.40;;;;;;;14.04;100.00;98854.19;8242791;28;20133;-80
2022/09/11 03:26:37;;;;;;;17.20;12.23;;;;;;;14.00;100.00;98866.84;8234972;28;20054;-80
2022/09/11 03:30:40;;;;;;;47.88;14.10;;;;;;;14.02;100.00;98867.28;8238738;28;20148;-80
2022/09/11 03:34:41;;;;;;;19.08;13.10;;;;;;;14.01;100.00;98861.06;8216979;28;20051;-80
2022/09/11 03:38:44;;;;;;;16.58;13.07;;;;;;;14.04;100.00;98870.47;8314760;28;20144;-79
2022/09/11 03:42:45;;;;;;;21.55;13.77;;;;;;;14.08;100.00;98874.09;8380131;28;20051;-80
2022/09/11 03:46:46;;;;;;;17.65;13.25;;;;;;;14.09;100.00;98872.97;8372984;28;20079;-80
2022/09/11 03:50:47;;;;;;;36.53;15.05;;;;;;;14.06;100.00;98884.53;8377476;28;20041;-81
2022/09/11 03:54:48;;;;;;;18.55;14.18;;;;;;;14.07;100.00;98880.66;8378127;28;20124;-81
2022/09/11 03:58:55;;;;;;;27.65;14.20;;;;;;;14.02;100.00;98883.59;8372303;28;20474;-81
2022/09/11 04:02:56;;;;;;;21.88;14.05;;;;;;;14.00;100.00;98891.28;8382472;28;20037;-81
2022/09/11 04:06:57;;;;;;;20.17;13.40;;;;;;;13.99;100.00;98886.97;8373579;28;20045;-80
2022/09/11 04:10:59;;;;;;;18.60;13.20;;;;;;;13.96;100.00;98891.94;8378863;28;20052;-80
2022/09/11 04:15:01;;;;;;;18.35;13.32;;;;;;;13.98;100.00;98893.53;8382766;28;20041;-80
2022/09/11 04:19:02;;;;;;;24.73;15.18;;;;;;;13.96;100.00;98897.38;8379294;28;20513;-81
2022/09/11 04:23:04;;;;;;;25.40;16.20;;;;;;;13.93;100.00;98892.63;8380889;28;20091;-80
2022/09/11 04:27:04;;;;;;;22.63;16.48;;;;;;;13.91;100.00;98894.88;8371039;28;20574;-80
2022/09/11 04:31:05;;;;;;;24.58;16.30;;;;;;;13.91;100.00;98899.50;8382918;28;20044;-79
2022/09/11 04:35:07;;;;;;;20.67;15.68;;;;;;;13.90;100.00;98893.31;8378415;28;20056;-80
2022/09/11 04:39:08;;;;;;;17.95;13.98;;;;;;;13.89;100.00;98891.72;8363027;28;20097;-80
2022/09/11 04:43:10;;;;;;;17.25;11.20;;;;;;;13.85;100.00;98896.22;8376042;28;20033;-80
2022/09/11 04:47:11;;;;;;;15.77;11.50;;;;;;;13.83;100.00;98893.06;8378591;28;20051;-79
2022/09/11 04:51:20;;;;;;;17.27;10.55;;;;;;;13.85;100.00;98896.22;8373979;28;20382;-79
2022/09/11 04:55:21;;;;;;;15.70;10.02;;;;;;;13.90;100.00;98887.88;8375962;28;20072;-80
2022/09/11 04:59:22;;;;;;;25.27;10.70;;;;;;;13.93;100.00;98886.41;8372314;28;20048;-78
2022/09/11 05:03:24;;;;;;;16.27;8.90;;;;;;;13.92;100.00;98884.81;8384579;28;20132;-79
2022/09/11 05:07:25;;;;;;;13.35;8.07;;;;;;;13.93;100.00;98892.63;8384301;28;20045;-79
2022/09/11 05:11:26;;;;;;;13.40;8.27;;;;;;;13.94;100.00;98886.06;8361655;28;20048;-79
2022/09/11 05:15:26;;;;;;;10.63;7.35;;;;;;;13.88;100.00;98895.56;8397037;28;20135;-79
2022/09/11 05:19:28;;;;;;;13.23;8.20;;;;;;;13.88;100.00;98884.69;8396416;28;20044;-79
2022/09/11 05:23:30;;;;;;;12.10;8.18;;;;;;;13.92;100.00;98899.19;8396715;28;20076;-80
2022/09/11 05:27:31;;;;;;;14.65;8.95;;;;;;;13.95;100.00;98901.25;8395643;28;20056;-78
2022/09/11 05:31:31;;;;;;;11.60;8.10;;;;;;;13.94;100.00;98899.66;8396748;28;20465;-79
2022/09/11 05:35:32;;;;;;;18.75;8.82;;;;;;;13.96;100.00;98902.81;8396117;28;20085;-79
2022/09/11 05:39:33;;;;;;;13.48;8.40;;;;;;;14.02;100.00;98899.88;8390480;28;20037;-79
2022/09/11 05:43:34;;;;;;;13.23;8.93;;;;;;;14.07;100.00;98905.09;8392723;28;20052;-78
2022/09/11 05:47:35;;;;;;;18.02;9.48;;;;;;;14.11;100.00;98897.88;8395527;28;20059;-79
2022/09/11 05:51:36;;;;;;;18.88;9.88;;;;;;;14.14;100.00;98910.78;8396563;28;20126;-79
2022/09/11 05:55:37;;;;;;;16.95;11.57;;;;;;;14.12;100.00;98915.72;8395742;28;20664;-77
2022/09/11 05:59:38;;;;;;;14.65;10.70;;;;;;;14.09;100.00;98905.56;8395375;28;20490;-80
2022/09/11 06:03:40;;;;;;;15.70;11.40;;;;;;;14.10;100.00;98918.00;8397867;28;20041;-79
2022/09/11 06:07:41;;;;;;;17.27;12.13;;;;;;;14.15;100.00;98920.50;8395673;28;20048;-84
2022/09/11 06:11:41;;;;;;;17.10;12.63;;;;;;;14.18;100.00;98922.53;8394944;28;20417;-79
2022/09/11 06:15:46;;;;;;;23.92;13.70;;;;;;;14.21;100.00;98919.16;8394904;28;20094;-80
2022/09/11 06:19:47;;;;;;;22.63;14.30;;;;;;;14.23;100.00;98922.31;8386734;28;20064;-79
2022/09/11 06:23:52;;;;;;;20.80;14.70;;;;;;;14.27;100.00;98923.25;8391851;28;20431;-79
2022/09/11 06:27:54;;;;;;;20.90;14.82;;;;;;;14.34;100.00;98923.47;8393148;28;20044;-79
2022/09/11 06:31:58;;;;;;;20.17;14.52;;;;;;;14.37;100.00;98933.72;8394095;28;20131;-80
2022/09/11 06:36:00;;;;;;;26.42;13.95;;;;;;;14.39;100.00;98931.44;8394053;28;20115;-78
2022/09/11 06:40:02;;;;;;;19.90;13.48;;;;;;;14.40;100.00;98938.47;8393967;28;20053;-80
2022/09/11 06:44:03;;;;;;;19.05;14.40;;;;;;;14.47;100.00;98932.47;8393030;28;20052;-80
2022/09/11 06:48:05;;;;;;;20.95;14.90;;;;;;;14.55;100.00;98939.72;8394468;28;20044;-79
2022/09/11 06:52:06;;;;;;;23.15;15.27;;;;;;;14.63;100.00;98936.91;8394798;28;20037;-79
2022/09/11 06:56:11;;;;;;;23.90;14.73;;;;;;;14.66;100.00;98930.78;8391445;28;20045;-80
2022/09/11 07:00:12;;;;;;;22.38;15.30;;;;;;;14.68;100.00;98939.41;8395409;28;20139;-80
2022/09/11 07:04:13;;;;;;;18.15;13.68;;;;;;;14.68;100.00;98942.13;8378104;28;20132;-80
2022/09/11 07:08:14;;;;;;;19.80;14.20;;;;;;;14.61;100.00;98944.59;8387497;28;20109;-79
2022/09/11 07:12:15;;;;;;;20.60;14.15;;;;;;;14.66;100.00;98944.38;8394086;28;20051;-79
2022/09/11 07:16:17;;;;;;;19.08;13.82;;;;;;;14.70;100.00;98948.00;8393899;28;20064;-78
2022/09/11 07:20:21;;;;;;;18.98;12.65;;;;;;;14.68;100.00;98955.72;8392158;28;20048;-80
2022/09/11 07:24:21;;;;;;;18.13;12.82;;;;;;;14.73;100.00;98958.19;8394033;28;20547;-80
2022/09/11 07:28:24;;;;;;;16.13;12.50;;;;;;;14.78;100.00;98952.53;8405321;28;20052;-80
2022/09/11 07:32:26;;;;;;;15.27;12.27;;;;;;;14.95;100.00;98958.88;8397669;28;20118;-80
2022/09/11 07:36:32;;;;;;;16.42;12.05;;;;;;;14.98;100.00;98953.53;8359355;28;20174;-81
2022/09/11 07:40:36;;;;;;;22.70;12.50;;;;;;;15.02;100.00;98953.66;8407143;28;20044;-78
2022/09/11 07:45:01;;;;;;;17.27;11.63;;;;;;;15.03;100.00;98938.91;8361923;28;20072;-79
2022/09/11 07:49:03;;;;;;;16.48;11.68;;;;;;;15.09;100.00;98943.00;8353646;28;20056;-78
2022/09/11 07:53:05;;;;;;;20.67;10.32;;;;;;;15.16;100.00;98964.97;8357380;28;20502;-80
2022/09/11 07:57:12;;;;;;;21.38;11.10;;;;;;;15.18;100.00;98970.84;8365159;28;20085;-80
2022/09/11 08:01:16;;;;;;;14.40;10.10;;;;;;;15.19;100.00;98964.28;8324223;28;20142;-79
2022/09/11 08:05:18;;;;;;;17.83;9.68;;;;;;;15.11;100.00;98973.38;8366541;28;20049;-80
2022/09/11 08:09:21;;;;;;;14.88;9.80;;;;;;;15.03;100.00;98972.34;8275454;28;20045;-79
2022/09/11 08:13:23;;;;;;;16.73;11.13;;;;;;;15.02;100.00;98964.53;8311640;28;20053;-81
2022/09/11 08:17:25;;;;;;;14.15;10.60;;;;;;;15.10;100.00;98972.59;8331838;28;20116;-81
2022/09/11 08:21:26;;;;;;;14.40;9.27;;;;;;;15.25;100.00;98973.81;8351097;28;20049;-81
2022/09/11 08:25:27;;;;;;;18.35;11.00;;;;;;;15.24;100.00;98983.09;8361179;28;20052;-81
2022/09/11 08:29:29;;;;;;;15.00;10.15;;;;;;;15.24;100.00;98977.66;8332468;28;20053;-81
2022/09/11 08:33:34;;;;;;;12.82;9.38;;;;;;;15.21;100.00;98984.59;8342166;28;20125;-81
2022/09/11 08:37:35;;;;;;;16.88;9.80;;;;;;;15.20;100.00;98993.06;8346703;28;20038;-80
2022/09/11 08:41:47;;;;;;;12.98;9.90;;;;;;;15.21;100.00;98989.22;8335795;28;20095;-82
2022/09/11 08:45:51;;;;;;;12.43;10.35;;;;;;;15.23;100.00;98997.81;8329618;28;20414;-80
2022/09/11 08:49:58;;;;;;;17.20;12.95;;;;;;;15.14;100.00;98989.00;8322147;28;20044;-83
2022/09/11 08:54:01;;;;;;;20.40;13.52;;;;;;;15.05;100.00;98991.84;8333567;28;20086;-81
2022/09/11 08:58:05;;;;;;;19.00;11.75;;;;;;;15.15;100.00;98996.03;8335858;28;20049;-83
2022/09/11 09:02:37;;;;;;;17.35;12.63;;;;;;;15.33;100.00;98991.94;8331145;28;20052;-82
2022/09/11 09:07:03;;;;;;;16.33;11.80;;;;;;;15.44;100.00;98998.47;8369202;28;20064;-81
2022/09/11 09:11:13;;;;;;;16.35;10.95;;;;;;;15.60;100.00;98993.13;8409216;28;20606;-82
2022/09/11 09:15:23;;;;;;;13.15;9.38;;;;;;;15.68;100.00;98996.88;8418804;28;20718;-84
2022/09/11 09:19:40;;;;;;;12.63;10.07;;;;;;;15.78;100.00;99001.84;8419331;28;20035;-80
2022/09/11 09:24:00;;;;;;;10.85;9.23;;;;;;;15.71;100.00;98990.72;8432326;28;20067;-81
2022/09/11 09:28:08;;;;;;;17.48;10.32;;;;;;;16.08;100.00;98997.63;8402780;28;20047;-81
2022/09/11 09:32:19;;;;;;;11.73;9.02;;;;;;;16.27;99.20;98997.78;8432060;28;20046;-82
2022/09/11 09:36:31;;;;;;;12.10;8.73;;;;;;;16.44;98.95;98996.66;8366229;28;20046;-80
2022/09/11 09:40:34;;;;;;;10.95;8.18;;;;;;;16.49;98.00;98993.69;8360236;28;20601;-80
2022/09/11 09:45:13;;;;;;;11.63;8.73;;;;;;;16.34;98.34;98987.06;8393294;28;20048;-80
2022/09/11 09:49:30;;;;;;;12.45;9.02;;;;;;;16.38;98.14;98993.41;8393849;28;20139;-82
2022/09/11 09:54:09;;;;;;;13.00;8.07;;;;;;;16.47;97.55;98990.50;8331902;28;20049;-82
2022/09/11 09:58:10;;;;;;;10.60;8.47;;;;;;;16.52;96.94;98992.19;8313003;28;20052;-80
2022/09/11 10:02:11;;;;;;;13.68;9.30;;;;;;;16.46;96.90;98992.44;8327248;28;20060;-81
2022/09/11 10:06:12;;;;;;;13.90;9.60;;;;;;;16.66;96.82;98992.56;8310823;28;20080;-80
2022/09/11 10:10:25;;;;;;;14.30;9.00;;;;;;;16.71;95.57;98995.81;8338904;28;20049;-82
2022/09/11 10:14:37;;;;;;;14.90;8.55;;;;;;;16.86;95.50;98991.53;8359968;28;20060;-82
2022/09/11 10:18:42;;;;;;;12.32;8.48;;;;;;;16.88;94.87;98994.69;8359663;28;20044;-81
2022/09/11 10:22:45;;;;;;;13.13;7.93;;;;;;;16.81;95.35;98999.97;8359941;28;20056;-82
2022/09/11 10:26:49;;;;;;;12.43;8.63;;;;;;;16.86;95.05;98999.72;8326210;28;20095;-82
2022/09/11 10:30:54;;;;;;;11.82;7.50;;;;;;;17.15;94.29;99010.16;8343198;28;20510;-81
2022/09/11 10:34:56;;;;;;;11.13;7.72;;;;;;;17.36;93.69;99015.31;8385892;28;20052;-81
2022/09/11 10:38:59;;;;;;;13.05;8.48;;;;;;;17.35;93.08;99018.38;8406022;28;20485;-81
2022/09/11 10:43:00;;;;;;;13.15;9.70;;;;;;;17.25;93.23;99015.06;8400588;28;20075;-81
2022/09/11 10:47:12;;;;;;;16.38;10.80;;;;;;;17.18;93.36;99023.06;8420833;28;20465;-80
2022/09/11 10:51:13;;;;;;;24.17;12.30;;;;;;;17.44;92.60;99021.72;8410370;28;20381;-80
2022/09/11 10:55:16;;;;;;;20.40;11.90;;;;;;;17.66;91.47;99018.31;8408965;28;20477;-82
2022/09/11 10:59:21;;;;;;;18.10;10.75;;;;;;;17.69;90.50;99023.09;8412578;28;20049;-82
2022/09/11 11:03:26;;;;;;;16.80;11.80;;;;;;;17.55;90.56;99023.56;8393248;28;20186;-81
2022/09/11 11:07:47;;;;;;;16.30;11.23;;;;;;;17.57;90.24;99025.91;8409633;28;20055;-82
2022/09/11 11:12:05;;;;;;;16.70;10.43;;;;;;;17.42;89.22;99040.41;8397963;28;20470;-82
2022/09/11 11:16:15;;;;;;;12.85;9.10;;;;;;;17.46;88.35;99030.34;8392599;28;20052;-84
2022/09/11 11:20:16;;;;;;;18.33;8.82;;;;;;;17.24;87.76;99029.84;8393559;28;20053;-87
2022/09/11 11:24:25;;;;;;;12.65;8.60;;;;;;;17.10;87.85;99034.97;8393742;28;20044;-81
2022/09/11 11:28:51;;;;;;;15.32;8.60;;;;;;;16.96;87.55;99040.09;8374418;28;20064;-79
2022/09/11 11:33:19;;;;;;;10.40;7.93;;;;;;;17.00;88.59;99040.97;8376099;28;20052;-81
2022/09/11 11:37:41;;;;;;;15.00;8.93;;;;;;;17.03;88.79;99040.25;8387601;28;20049;-81
2022/09/11 11:41:46;;;;;;;15.93;8.55;;;;;;;16.87;89.54;99048.44;8392891;28;20049;-79
2022/09/11 11:45:53;;;;;;;10.68;7.50;;;;;;;16.69;90.14;99051.88;8375824;28;20055;-80
2022/09/11 11:50:33;;;;;;;13.85;9.00;;;;;;;16.63;90.43;99053.25;8388707;28;20496;-81
2022/09/11 11:54:40;;;;;;;9.32;7.35;;;;;;;16.70;89.68;99053.47;8320465;28;20053;-79
2022/09/11 11:58:53;;;;;;;9.43;7.82;;;;;;;16.70;89.91;99048.00;8307604;28;20053;-82
2022/09/11 12:02:59;;;;;;;10.38;7.43;;;;;;;16.81;89.74;99049.06;8291178;28;20120;-81
2022/09/11 12:07:01;;;;;;;14.48;8.50;;;;;;;17.02;89.08;99048.81;8292794;28;20434;-81
2022/09/11 12:11:06;;;;;;;11.52;7.85;;;;;;;17.41;88.58;99052.44;8279726;28;20580;-83
2022/09/11 12:15:14;;;;;;;15.32;8.13;;;;;;;17.81;87.16;99044.81;8280254;28;20046;-82
2022/09/11 12:19:19;;;;;;;11.60;7.50;;;;;;;18.38;84.49;99048.69;8280286;28;20566;-84
2022/09/11 12:23:29;;;;;;;8.90;6.70;;;;;;;18.54;82.69;99046.69;8287868;28;20054;-82
2022/09/11 12:27:33;;;;;;;11.23;6.90;;;;;;;18.37;82.68;99044.38;8296563;28;20050;-81
2022/09/11 12:31:49;;;;;;;10.52;6.05;;;;;;;18.10;83.07;99049.72;8347985;28;20052;-81
2022/09/11 12:35:52;;;;;;;9.15;6.35;;;;;;;17.86;83.98;99050.00;8399347;28;20119;-85
2022/09/11 12:40:19;;;;;;;8.15;5.78;;;;;;;17.43;84.99;99052.91;8397054;28;20040;-83
2022/09/11 12:44:29;;;;;;;7.60;5.60;;;;;;;17.06;85.44;99061.38;8294940;28;20051;-81
2022/09/11 12:48:40;;;;;;;8.07;5.45;;;;;;;16.83;86.12;99068.59;8296060;28;20073;-82
2022/09/11 12:52:43;;;;;;;9.13;5.35;;;;;;;16.69;86.56;99073.69;8291243;28;20070;-81
2022/09/11 12:57:00;;;;;;;7.65;5.38;;;;;;;16.61;86.47;99077.34;8294953;28;20495;-81
2022/09/11 13:01:13;;;;;;;8.48;4.65;;;;;;;16.51;85.74;99077.81;8272536;28;20053;-81
2022/09/11 13:05:36;;;;;;;13.07;5.13;;;;;;;16.52;85.62;99079.41;8288604;28;20458;-82
2022/09/11 13:09:46;;;;;;;8.77;5.07;;;;;;;16.52;85.40;99079.41;8288911;28;20140;-81
2022/09/11 13:13:50;;;;;;;7.20;4.60;;;;;;;16.57;85.00;99076.44;8214212;28;20105;-84
2022/09/11 13:17:51;;;;;;;5.40;4.15;;;;;;;16.56;84.58;99080.28;8256874;28;20042;-80
2022/09/11 13:21:52;;;;;;;7.93;4.28;;;;;;;16.82;84.76;99083.34;8321859;28;20050;-80
2022/09/11 13:25:55;;;;;;;6.55;4.25;;;;;;;17.16;83.29;99082.69;8278181;28;20041;-80
2022/09/11 13:29:57;;;;;;;5.97;4.60;;;;;;;17.40;80.68;99075.44;8333331;28;20064;-85
2022/09/11 13:33:59;;;;;;;6.55;3.97;;;;;;;17.32;80.71;99069.03;8312632;28;20069;-83
2022/09/11 13:38:12;;;;;;;4.88;3.83;;;;;;;17.11;80.35;99085.69;8326326;28;20116;-81
2022/09/11 13:42:17;;;;;;;6.20;3.67;;;;;;;16.92;81.29;99077.38;8307684;28;20057;-83
2022/09/11 13:46:22;;;;;;;6.43;4.03;;;;;;;16.89;82.35;99067.19;8395891;28;20033;-82
2022/09/11 13:50:24;;;;;;;6.63;4.20;;;;;;;16.89;82.98;99072.63;8391116;28;20117;-82
2022/09/11 13:54:30;;;;;;;8.68;4.63;;;;;;;16.88;83.19;99076.50;8396439;28;20052;-82
2022/09/11 13:58:34;;;;;;;7.07;4.30;;;;;;;16.89;82.63;99072.63;8395786;28;20067;-81
2022/09/11 14:02:45;;;;;;;6.38;4.65;;;;;;;16.85;82.79;99077.22;8401488;28;20056;-81
2022/09/11 14:06:47;;;;;;;6.65;4.15;;;;;;;16.80;82.89;99080.22;8404372;28;20045;-80
2022/09/11 14:10:49;;;;;;;5.72;4.18;;;;;;;16.73;83.53;99080.00;8393471;28;20044;-81
2022/09/11 14:14:53;;;;;;;8.30;4.95;;;;;;;16.65;84.06;99083.69;8408326;28;20131;-80
2022/09/11 14:19:07;;;;;;;10.82;4.55;;;;;;;16.58;84.55;99088.94;8396780;28;20123;-81
2022/09/11 14:23:14;;;;;;;6.18;4.22;;;;;;;16.42;84.17;99086.97;8407529;28;20047;-80
2022/09/11 14:27:33;;;;;;;5.50;4.10;;;;;;;16.40;84.91;99088.44;8402451;28;20068;-81
2022/09/11 14:31:40;;;;;;;6.65;4.07;;;;;;;16.44;85.03;99083.91;8395780;28;20044;-79
2022/09/11 14:35:46;;;;;;;10.85;4.75;;;;;;;16.40;85.26;99089.22;8396894;28;20440;-84
2022/09/11 14:39:57;;;;;;;5.22;4.03;;;;;;;16.37;85.34;99084.47;8319388;28;20036;-83
2022/09/11 14:43:59;;;;;;;6.30;4.57;;;;;;;16.36;85.53;99088.34;8380845;28;20476;-82
2022/09/11 14:48:01;;;;;;;6.80;4.28;;;;;;;16.31;85.44;99085.88;8368145;28;20067;-82
2022/09/11 14:52:03;;;;;;;7.22;4.50;;;;;;;16.30;85.35;99086.19;8359253;28;20544;-83
2022/09/11 14:56:05;;;;;;;6.88;4.53;;;;;;;16.30;85.52;99089.72;8359709;28;20064;-84
2022/09/11 15:00:07;;;;;;;8.18;4.85;;;;;;;16.25;85.73;99087.25;8365857;28;20079;-82
2022/09/11 15:04:14;;;;;;;7.22;4.88;;;;;;;16.18;86.01;99084.31;8362357;28;20493;-82
2022/09/11 15:08:15;;;;;;;9.45;4.63;;;;;;;16.12;86.35;99093.88;8340912;28;20120;-80
2022/09/11 15:12:18;;;;;;;6.47;4.80;;;;;;;16.12;86.68;99083.00;8355438;28;20473;-81
2022/09/11 15:16:19;;;;;;;9.00;5.32;;;;;;;16.09;86.85;99089.13;8357140;28;21808;-80
2022/09/11 15:20:23;;;;;;;7.32;4.80;;;;;;;16.04;87.01;99086.63;8357413;28;20049;-80
2022/09/11 15:24:24;;;;;;;9.40;5.00;;;;;;;16.03;87.32;99090.50;8356920;28;20048;-81
2022/09/11 15:28:26;;;;;;;9.65;4.70;;;;;;;16.02;87.63;99086.19;8367855;28;20460;-82
2022/09/11 15:32:27;;;;;;;9.45;5.10;;;;;;;16.02;88.24;99094.38;8393237;28;20150;-82
2022/09/11 15:36:29;;;;;;;8.15;5.20;;;;;;;15.97;88.71;99105.47;8393750;28;20178;-80
2022/09/11 15:40:31;;;;;;;8.65;5.38;;;;;;;15.88;89.74;99099.38;8395409;28;20052;-80
2022/09/11 15:44:34;;;;;;;8.63;5.38;;;;;;;15.83;90.41;99107.78;8399585;28;20044;-80
2022/09/11 15:48:35;;;;;;;9.68;5.50;;;;;;;15.77;90.98;99114.59;8401351;28;20053;-80
2022/09/11 15:52:36;;;;;;;11.10;5.78;;;;;;;15.78;91.49;99116.19;8374107;28;20560;-79
2022/09/11 15:56:37;;;;;;;8.77;6.00;;;;;;;15.74;92.24;99112.56;8415516;28;20048;-80
2022/09/11 16:00:38;;;;;;;8.82;5.90;;;;;;;15.73;92.55;99113.69;8397896;28;20063;-80
2022/09/11 16:04:39;;;;;;;8.52;5.72;;;;;;;15.67;93.43;99120.50;8398522;28;20379;-81
2022/09/11 16:08:42;;;;;;;13.05;6.32;;;;;;;15.63;93.38;99118.47;8422098;28;20049;-80
2022/09/11 16:12:45;;;;;;;9.07;6.38;;;;;;;15.61;93.84;99112.56;8421544;28;20047;-79
2022/09/11 16:16:47;;;;;;;10.90;6.00;;;;;;;15.59;94.07;99123.03;8361146;28;20051;-80
2022/09/11 16:20:56;;;;;;;13.77;6.70;;;;;;;15.56;94.54;99120.97;8411647;28;20052;-80
2022/09/11 16:24:59;;;;;;;7.63;6.18;;;;;;;15.54;94.84;99117.81;8380088;28;20067;-80
2022/09/11 16:29:01;;;;;;;14.70;6.82;;;;;;;15.50;95.18;99122.31;8403209;28;20052;-80
2022/09/11 16:33:02;;;;;;;14.65;6.50;;;;;;;15.45;95.62;99119.81;8400822;28;20036;-80
2022/09/11 16:37:03;;;;;;;11.27;6.93;;;;;;;15.43;95.95;99127.53;8402116;28;20044;-81
2022/09/11 16:41:11;;;;;;;12.55;6.70;;;;;;;15.40;96.32;99111.88;8408502;28;20459;-82
2022/09/11 16:45:12;;;;;;;14.50;7.50;;;;;;;15.33;97.06;99133.44;8422023;28;20810;-81
2022/09/11 16:49:17;;;;;;;10.25;6.70;;;;;;;15.21;98.23;99130.69;8410799;28;20083;-80
2022/09/11 16:53:20;;;;;;;10.07;6.57;;;;;;;15.14;98.46;99130.44;8389527;28;20052;-81
2022/09/11 16:57:22;;;;;;;14.45;6.90;;;;;;;15.12;98.88;99147.09;8384847;28;20048;-82
2022/09/11 17:01:35;;;;;;;10.60;6.15;;;;;;;15.12;99.38;99143.59;8399327;28;20044;-80
2022/09/11 17:05:37;;;;;;;15.20;7.22;;;;;;;15.04;99.65;99136.31;8407381;28;20052;-83
2022/09/11 17:09:39;;;;;;;13.13;6.97;;;;;;;15.03;99.80;99140.16;8399848;28;20052;-82
2022/09/11 17:13:42;;;;;;;8.38;6.50;;;;;;;15.05;99.44;99137.91;8401258;28;20138;-82
2022/09/11 17:17:43;;;;;;;13.02;7.38;;;;;;;15.02;99.61;99138.56;8419347;28;20469;-80
2022/09/11 17:21:44;;;;;;;10.98;6.32;;;;;;;14.97;99.87;99146.94;8432472;28;20060;-81
2022/09/11 17:25:45;;;;;;;10.45;5.90;;;;;;;14.91;100.00;99148.31;8432314;28;20052;-82
2022/09/11 17:29:47;;;;;;;11.57;6.30;;;;;;;14.85;100.00;99144.22;8432287;28;20048;-79
2022/09/11 17:33:53;;;;;;;10.85;5.72;;;;;;;14.80;100.00;99148.72;8432070;28;20071;-80
2022/09/11 17:37:56;;;;;;;7.22;5.28;;;;;;;14.67;100.00;99152.53;8425211;28;20044;-81
2022/09/11 17:41:57;;;;;;;11.73;5.53;;;;;;;14.59;100.00;99156.13;8381860;28;20053;-80
2022/09/11 17:46:03;;;;;;;10.75;6.20;;;;;;;14.51;100.00;99162.44;8410342;28;20041;-81
2022/09/11 17:50:05;;;;;;;9.27;5.05;;;;;;;14.44;100.00;99162.16;8365772;28;20363;-81
2022/09/11 17:54:07;;;;;;;9.25;5.22;;;;;;;14.37;100.00;99172.78;8416760;28;20049;-80
2022/09/11 17:58:09;;;;;;;9.27;4.97;;;;;;;14.33;100.00;99177.25;8418210;28;20062;-80
2022/09/11 18:02:13;;;;;;;14.68;5.32;;;;;;;14.29;100.00;99170.88;8402304;28;20110;-80
2022/09/11 18:06:20;;;;;;;11.20;5.75;;;;;;;14.24;100.00;99180.03;8402138;28;20054;-80
2022/09/11 18:10:22;;;;;;;7.45;5.68;;;;;;;14.20;100.00;99172.88;8419651;28;20103;-80
2022/09/11 18:14:23;;;;;;;10.82;6.10;;;;;;;14.16;100.00;99177.38;8374820;28;20417;-80
2022/09/11 18:18:24;;;;;;;7.78;5.55;;;;;;;14.15;100.00;99181.22;8413522;28;20084;-80
2022/09/11 18:22:27;;;;;;;7.82;5.90;;;;;;;14.17;100.00;99184.41;8409410;28;20036;-80
2022/09/11 18:26:31;;;;;;;10.32;5.40;;;;;;;14.19;100.00;99182.16;8405486;28;20048;-81
2022/09/11 18:30:34;;;;;;;8.15;5.13;;;;;;;14.17;100.00;99189.84;8413210;28;20183;-80
2022/09/11 18:34:35;;;;;;;7.85;5.40;;;;;;;14.16;100.00;99193.69;8401226;28;21939;-80
2022/09/11 18:38:36;;;;;;;7.00;5.00;;;;;;;14.19;100.00;99198.44;8401630;28;20060;-81
2022/09/11 18:42:39;;;;;;;8.85;5.13;;;;;;;14.23;100.00;99196.66;8414717;28;20133;-81
2022/09/11 18:46:43;;;;;;;8.10;4.72;;;;;;;14.26;100.00;99193.28;8380468;28;20055;-79
2022/09/11 18:50:45;;;;;;;7.32;4.80;;;;;;;14.27;100.00;99203.84;8393911;28;20047;-80
2022/09/11 18:54:46;;;;;;;10.70;5.35;;;;;;;14.30;100.00;99199.66;8394147;28;20502;-80